New Lisbon, WI (53950)

6:30 PM CDT on July 28, 2015 (GMT -0500)
KWINEWLI2 | | Change Station
CLOSE
Current Station
Personal Weather Station
Location: New Lisbon, WI
Elevation: 891 ft
Nearby Weather Stations

Elev 891 ft 43.87 °N, 90.17 °W | Updated 18 seconds ago

Mostly Cloudy
Mostly Cloudy
82.9 °F
Feels Like 88 °F
N
5.0
Wind Variable Wind from SW
Gusts 5.0 mph

Today
High -- | Low -- °F
--% Chance of Precip.
Yesterday
High -- | Low -- °F
Precip. -- in
5:44 AM 8:29 PM
Waxing Gibbous, 92% visible
Pressure 29.90 in
Visibility 10.0 miles
Clouds Few 2200 ft
Mostly Cloudy 15000 ft
Heat Index 88 °F
Dew Point 72 °F
Humidity 70%
Rainfall 0.00 in
Snow Depth Not available.
UV 0.0 out of 12
Pollen 6.30 out of 12
Air Quality Not available.
Flu Activity Not available.
METAR KVOK 282258Z 19008KT 10SM FEW022 BKN150 28/24 A2990 RMK AO2A SLP123

More Conditions Fewer Conditions

Pressure 29.90 in
Visibility 10.0 miles
Clouds Few 2200 ft
Mostly Cloudy 15000 ft
Heat Index 88 °F
Dew Point 72 °F
Humidity 70%
Rainfall 0.00 in
Snow Depth Not available.
UV 0.0 out of 12
Pollen 6.30 out of 12
Air Quality Not available.
Flu Activity Not available.
METAR KVOK 282258Z 19008KT 10SM FEW022 BKN150 28/24 A2990 RMK AO2A SLP123

More Conditions Fewer Conditions

10-Day Weather Forecast

×

Almanac

Astronomy

Jul. 28, 2015 Rise Set
Actual Time
Civil Twilight
Nautical Twilight
Astronomical Twilight
Moon
Length of Visible Light
Length of Day
Tomorrow will be .
, % of the Moon is Illuminated

Today's Extremes

State Highs State Lows

Community

WunderPhotos

Upload Photos

1,841,966 photos uploaded!

WunderBlogs® & News

Nearby

Air Quality

  Air Quality AQ Index Pollutant
Not available.

Snow Depth

Station Depth Elevation

Earthquake Activity

City Distance Mag. Time & Date
Minimum magnitude displayed is 2.5.

Coastal Water Temperatures

Place Temperature

Stations

Nearby Weather Stations

Station Location Temp. Windchill Dew Point Humidity Wind Precip. Elev Updated Type